Austin, Arkansas
Current Conditions -  °F | °C
As of 3:58 AM on Thursday 27 Nov 2014 (Local Time) from KLRF Reporting Station
Clear Clear  
Wind Chill:   Ceiling: Unl
Heat Index:   Visibility: 10mi
Dew Point: -3°   Wind: 5mph
Humidity: 66%   Direction: 320°NW
Pressure: 30.4"   Gusts: NA
Location:  35°N, 91.98°W
Report Text: KLRF 270958Z AUTO 32004KT 10SM CLR 02/M03 A3040 RMK AO2 SLP298 T00231034 $
Loading
Personal Weather Stations






























Interactive Weather Map New forecast layout! Learn more

10-Day Weather Forecast

Advertisements
Track Severe Weather on mobile